sensor_id;sensor_type;location;lat;lon;timestamp;pressure;altitude;pressure_sealevel;temperature
61390;BMP280;47260;48.274;19.814;2023-04-03T00:01:19;99176.34;;;4.68
61390;BMP280;47260;48.274;19.814;2023-04-03T00:02:50;99182.97;;;4.72
61390;BMP280;47260;48.274;19.814;2023-04-03T00:04:21;99181.75;;;4.73
61390;BMP280;47260;48.274;19.814;2023-04-03T00:05:53;99176.16;;;4.71
61390;BMP280;47260;48.274;19.814;2023-04-03T00:07:24;99180.44;;;4.78
61390;BMP280;47260;48.274;19.814;2023-04-03T00:08:55;99184.56;;;4.79
61390;BMP280;47260;48.274;19.814;2023-04-03T00:10:27;99176.16;;;4.80
61390;BMP280;47260;48.274;19.814;2023-04-03T00:11:59;99184.97;;;4.86
61390;BMP280;47260;48.274;19.814;2023-04-03T00:13:32;99190.59;;;4.88
61390;BMP280;47260;48.274;19.814;2023-04-03T00:15:04;99194.44;;;4.87
61390;BMP280;47260;48.274;19.814;2023-04-03T00:16:36;99186.47;;;4.87
61390;BMP280;47260;48.274;19.814;2023-04-03T00:18:08;99189.28;;;4.84
61390;BMP280;47260;48.274;19.814;2023-04-03T00:19:39;99188.09;;;4.76
61390;BMP280;47260;48.274;19.814;2023-04-03T00:21:12;99190.06;;;4.75
61390;BMP280;47260;48.274;19.814;2023-04-03T00:22:44;99186.03;;;4.80
61390;BMP280;47260;48.274;19.814;2023-04-03T00:24:16;99188.25;;;4.81
61390;BMP280;47260;48.274;19.814;2023-04-03T00:25:48;99183.22;;;4.83
61390;BMP280;47260;48.274;19.814;2023-04-03T00:27:20;99186.19;;;4.85
61390;BMP280;47260;48.274;19.814;2023-04-03T00:28:53;99181.69;;;4.91
61390;BMP280;47260;48.274;19.814;2023-04-03T00:30:25;99176.25;;;4.86
61390;BMP280;47260;48.274;19.814;2023-04-03T00:31:56;99177.66;;;4.96
61390;BMP280;47260;48.274;19.814;2023-04-03T00:33:28;99184.63;;;4.93
61390;BMP280;47260;48.274;19.814;2023-04-03T00:34:58;99182.28;;;4.96
61390;BMP280;47260;48.274;19.814;2023-04-03T00:36:30;99182.84;;;5.00
61390;BMP280;47260;48.274;19.814;2023-04-03T00:38:02;99183.41;;;5.04
61390;BMP280;47260;48.274;19.814;2023-04-03T00:39:32;99186.34;;;5.06
61390;BMP280;47260;48.274;19.814;2023-04-03T00:41:04;99185.00;;;5.10
61390;BMP280;47260;48.274;19.814;2023-04-03T00:42:36;99188.63;;;4.98
61390;BMP280;47260;48.274;19.814;2023-04-03T00:44:23;99188.31;;;4.96
61390;BMP280;47260;48.274;19.814;2023-04-03T00:46:14;99183.00;;;4.96
61390;BMP280;47260;48.274;19.814;2023-04-03T00:47:46;99184.75;;;4.99
61390;BMP280;47260;48.274;19.814;2023-04-03T00:49:17;99191.56;;;5.00
61390;BMP280;47260;48.274;19.814;2023-04-03T00:50:49;99182.09;;;4.99
61390;BMP280;47260;48.274;19.814;2023-04-03T00:52:23;99191.84;;;5.02
61390;BMP280;47260;48.274;19.814;2023-04-03T00:53:58;99182.28;;;4.96
61390;BMP280;47260;48.274;19.814;2023-04-03T00:55:31;99184.19;;;4.95
61390;BMP280;47260;48.274;19.814;2023-04-03T00:57:03;99195.84;;;4.98
61390;BMP280;47260;48.274;19.814;2023-04-03T00:58:40;99179.94;;;4.88
61390;BMP280;47260;48.274;19.814;2023-04-03T01:00:17;99181.25;;;4.93
61390;BMP280;47260;48.274;19.814;2023-04-03T01:01:49;99181.25;;;4.93
61390;BMP280;47260;48.274;19.814;2023-04-03T01:03:21;99192.91;;;4.96
61390;BMP280;47260;48.274;19.814;2023-04-03T01:04:53;99190.53;;;4.98
61390;BMP280;47260;48.274;19.814;2023-04-03T01:06:28;99198.53;;;4.98
61390;BMP280;47260;48.274;19.814;2023-04-03T01:08:06;99203.56;;;4.96
61390;BMP280;47260;48.274;19.814;2023-04-03T01:09:39;99198.25;;;4.96
61390;BMP280;47260;48.274;19.814;2023-04-03T01:11:11;99208.88;;;4.96
61390;BMP280;47260;48.274;19.814;2023-04-03T01:12:44;99210.34;;;4.97
61390;BMP280;47260;48.274;19.814;2023-04-03T01:14:16;99204.88;;;5.00
61390;BMP280;47260;48.274;19.814;2023-04-03T01:15:50;99203.66;;;5.01
61390;BMP280;47260;48.274;19.814;2023-04-03T01:17:31;99197.63;;;5.01
61390;BMP280;47260;48.274;19.814;2023-04-03T01:19:03;99197.63;;;5.01
61390;BMP280;47260;48.274;19.814;2023-04-03T01:22:45;99203.31;;;4.84
61390;BMP280;47260;48.274;19.814;2023-04-03T01:24:34;99208.63;;;4.84
61390;BMP280;47260;48.274;19.814;2023-04-03T01:26:09;99203.63;;;4.77
61390;BMP280;47260;48.274;19.814;2023-04-03T01:27:42;99206.44;;;4.74
61390;BMP280;47260;48.274;19.814;2023-04-03T01:29:13;99209.28;;;4.70
61390;BMP280;47260;48.274;19.814;2023-04-03T01:30:49;99198.81;;;4.67
61390;BMP280;47260;48.274;19.814;2023-04-03T01:32:23;99202.59;;;4.75
61390;BMP280;47260;48.274;19.814;2023-04-03T01:33:55;99205.69;;;4.82
61390;BMP280;47260;48.274;19.814;2023-04-03T01:35:26;99213.06;;;4.87
61390;BMP280;47260;48.274;19.814;2023-04-03T01:36:58;99207.53;;;4.91
61390;BMP280;47260;48.274;19.814;2023-04-03T01:38:30;99204.00;;;4.94
61390;BMP280;47260;48.274;19.814;2023-04-03T01:40:02;99201.63;;;4.96
61390;BMP280;47260;48.274;19.814;2023-04-03T01:41:34;99205.28;;;4.99
61390;BMP280;47260;48.274;19.814;2023-04-03T01:43:15;99203.56;;;4.96
61390;BMP280;47260;48.274;19.814;2023-04-03T01:44:46;99210.75;;;5.04
61390;BMP280;47260;48.274;19.814;2023-04-03T01:46:18;99202.31;;;5.06
61390;BMP280;47260;48.274;19.814;2023-04-03T01:47:52;99205.53;;;5.10
61390;BMP280;47260;48.274;19.814;2023-04-03T01:49:24;99208.94;;;5.10
61390;BMP280;47260;48.274;19.814;2023-04-03T01:50:56;99204.97;;;5.06
61390;BMP280;47260;48.274;19.814;2023-04-03T01:52:26;99206.72;;;5.09
61390;BMP280;47260;48.274;19.814;2023-04-03T01:53:58;99204.06;;;5.09
61390;BMP280;47260;48.274;19.814;2023-04-03T01:55:30;99212.63;;;5.13
61390;BMP280;47260;48.274;19.814;2023-04-03T01:57:01;99211.41;;;5.14
61390;BMP280;47260;48.274;19.814;2023-04-03T01:58:33;99207.59;;;5.15
61390;BMP280;47260;48.274;19.814;2023-04-03T02:00:06;99214.81;;;5.14
61390;BMP280;47260;48.274;19.814;2023-04-03T02:01:43;99216.75;;;5.14
61390;BMP280;47260;48.274;19.814;2023-04-03T02:03:17;99215.56;;;5.15
61390;BMP280;47260;48.274;19.814;2023-04-03T02:04:49;99215.56;;;5.15
61390;BMP280;47260;48.274;19.814;2023-04-03T02:06:20;99212.63;;;5.13
61390;BMP280;47260;48.274;19.814;2023-04-03T02:07:52;99214.53;;;5.12
61390;BMP280;47260;48.274;19.814;2023-04-03T02:09:24;99211.50;;;5.05
61390;BMP280;47260;48.274;19.814;2023-04-03T02:10:56;99214.16;;;5.05
61390;BMP280;47260;48.274;19.814;2023-04-03T02:12:28;99204.88;;;5.00
61390;BMP280;47260;48.274;19.814;2023-04-03T02:14:00;99210.28;;;5.06
61390;BMP280;47260;48.274;19.814;2023-04-03T02:15:32;99213.13;;;5.02
61390;BMP280;47260;48.274;19.814;2023-04-03T02:17:02;99204.41;;;5.02
61390;BMP280;47260;48.274;19.814;2023-04-03T02:18:40;99206.31;;;5.01
61390;BMP280;47260;48.274;19.814;2023-04-03T02:20:11;99200.72;;;4.99
61390;BMP280;47260;48.274;19.814;2023-04-03T02:21:43;99205.75;;;4.97
61390;BMP280;47260;48.274;19.814;2023-04-03T02:23:15;99207.25;;;4.98
61390;BMP280;47260;48.274;19.814;2023-04-03T02:24:48;99198.66;;;4.94
61390;BMP280;47260;48.274;19.814;2023-04-03T02:26:20;99202.69;;;4.89
61390;BMP280;47260;48.274;19.814;2023-04-03T02:27:51;99208.16;;;4.86
61390;BMP280;47260;48.274;19.814;2023-04-03T02:29:23;99200.38;;;4.82
61390;BMP280;47260;48.274;19.814;2023-04-03T02:30:55;99201.41;;;4.76
61390;BMP280;47260;48.274;19.814;2023-04-03T02:32:26;99203.78;;;4.74
61390;BMP280;47260;48.274;19.814;2023-04-03T02:33:59;99206.16;;;4.72
61390;BMP280;47260;48.274;19.814;2023-04-03T02:35:31;99201.75;;;4.69
61390;BMP280;47260;48.274;19.814;2023-04-03T02:37:03;99203.56;;;4.63
61390;BMP280;47260;48.274;19.814;2023-04-03T02:38:35;99205.63;;;4.59
61390;BMP280;47260;48.274;19.814;2023-04-03T02:40:07;99208.88;;;4.63
61390;BMP280;47260;48.274;19.814;2023-04-03T02:41:40;99202.53;;;4.60
61390;BMP280;47260;48.274;19.814;2023-04-03T02:43:17;99212.25;;;4.63
61390;BMP280;47260;48.274;19.814;2023-04-03T02:44:49;99204.56;;;4.56
61390;BMP280;47260;48.274;19.814;2023-04-03T02:46:20;99207.56;;;4.49
61390;BMP280;47260;48.274;19.814;2023-04-03T02:47:52;99207.56;;;4.49
61390;BMP280;47260;48.274;19.814;2023-04-03T02:49:25;99203.88;;;4.47
61390;BMP280;47260;48.274;19.814;2023-04-03T02:50:56;99198.28;;;4.45
61390;BMP280;47260;48.274;19.814;2023-04-03T02:52:27;99201.69;;;4.45
61390;BMP280;47260;48.274;19.814;2023-04-03T02:54:02;99200.19;;;4.44
61390;BMP280;47260;48.274;19.814;2023-04-03T02:55:37;99204.34;;;4.45
61390;BMP280;47260;48.274;19.814;2023-04-03T02:57:09;99200.78;;;4.48
61390;BMP280;47260;48.274;19.814;2023-04-03T02:58:40;99204.03;;;4.43
61390;BMP280;47260;48.274;19.814;2023-04-03T03:00:13;99203.59;;;4.45
61390;BMP280;47260;48.274;19.814;2023-04-03T03:01:44;99197.69;;;4.41
61390;BMP280;47260;48.274;19.814;2023-04-03T03:03:16;99210.53;;;4.42
61390;BMP280;47260;48.274;19.814;2023-04-03T03:04:48;99207.75;;;4.37
61390;BMP280;47260;48.274;19.814;2023-04-03T03:06:20;99207.91;;;4.33
61390;BMP280;47260;48.274;19.814;2023-04-03T03:07:52;99214.97;;;4.36
61390;BMP280;47260;48.274;19.814;2023-04-03T03:09:23;99208.78;;;4.39
61390;BMP280;47260;48.274;19.814;2023-04-03T03:10:55;99209.94;;;4.38
61390;BMP280;47260;48.274;19.814;2023-04-03T03:12:27;99209.94;;;4.38
61390;BMP280;47260;48.274;19.814;2023-04-03T03:14:00;99202.44;;;4.37
61390;BMP280;47260;48.274;19.814;2023-04-03T03:15:31;99205.53;;;4.35
61390;BMP280;47260;48.274;19.814;2023-04-03T03:17:03;99210.28;;;4.31
61390;BMP280;47260;48.274;19.814;2023-04-03T03:18:36;99212.66;;;4.29
61390;BMP280;47260;48.274;19.814;2023-04-03T03:20:09;99206.75;;;4.25
61390;BMP280;47260;48.274;19.814;2023-04-03T03:21:41;99212.50;;;4.24
61390;BMP280;47260;48.274;19.814;2023-04-03T03:23:13;99204.22;;;4.22
61390;BMP280;47260;48.274;19.814;2023-04-03T03:24:45;99205.13;;;4.18
61390;BMP280;47260;48.274;19.814;2023-04-03T03:26:16;99208.50;;;4.19
61390;BMP280;47260;48.274;19.814;2023-04-03T03:27:48;99209.25;;;4.20
61390;BMP280;47260;48.274;19.814;2023-04-03T03:29:20;99210.88;;;4.17
61390;BMP280;47260;48.274;19.814;2023-04-03T03:30:52;99211.63;;;4.18
61390;BMP280;47260;48.274;19.814;2023-04-03T03:32:25;99211.63;;;4.18
61390;BMP280;47260;48.274;19.814;2023-04-03T03:33:56;99208.50;;;4.19
61390;BMP280;47260;48.274;19.814;2023-04-03T03:35:29;99204.41;;;4.18
61390;BMP280;47260;48.274;19.814;2023-04-03T03:37:01;99203.19;;;4.19
61390;BMP280;47260;48.274;19.814;2023-04-03T03:38:33;99204.69;;;4.20
61390;BMP280;47260;48.274;19.814;2023-04-03T03:40:07;99204.22;;;4.22
61390;BMP280;47260;48.274;19.814;2023-04-03T03:41:39;99206.16;;;4.21
61390;BMP280;47260;48.274;19.814;2023-04-03T03:43:10;99207.06;;;4.18
61390;BMP280;47260;48.274;19.814;2023-04-03T03:44:42;99201.34;;;4.10
61390;BMP280;47260;48.274;19.814;2023-04-03T03:46:13;99205.16;;;4.09
61390;BMP280;47260;48.274;19.814;2023-04-03T03:47:45;99200.59;;;4.10
61390;BMP280;47260;48.274;19.814;2023-04-03T03:49:17;99192.91;;;4.12
61390;BMP280;47260;48.274;19.814;2023-04-03T03:50:50;99202.03;;;4.11
61390;BMP280;47260;48.274;19.814;2023-04-03T03:52:23;99197.03;;;4.13
61390;BMP280;47260;48.274;19.814;2023-04-03T03:53:54;99200.72;;;4.15
61390;BMP280;47260;48.274;19.814;2023-04-03T03:55:25;99202.63;;;4.15
61390;BMP280;47260;48.274;19.814;2023-04-03T03:56:59;99207.94;;;4.15
61390;BMP280;47260;48.274;19.814;2023-04-03T03:58:30;99207.94;;;4.15
61390;BMP280;47260;48.274;19.814;2023-04-03T04:00:03;99205.56;;;4.17
61390;BMP280;47260;48.274;19.814;2023-04-03T04:01:45;99204.81;;;4.16
61390;BMP280;47260;48.274;19.814;2023-04-03T04:03:17;99205.44;;;4.21
61390;BMP280;47260;48.274;19.814;2023-04-03T04:04:51;99206.47;;;4.23
61390;BMP280;47260;48.274;19.814;2023-04-03T04:06:25;99210.75;;;4.21
61390;BMP280;47260;48.274;19.814;2023-04-03T04:08:00;99219.88;;;4.20
61390;BMP280;47260;48.274;19.814;2023-04-03T04:09:31;99215.75;;;4.18
61390;BMP280;47260;48.274;19.814;2023-04-03T04:11:03;99215.91;;;4.15
61390;BMP280;47260;48.274;19.814;2023-04-03T04:12:35;99224.91;;;4.08
61390;BMP280;47260;48.274;19.814;2023-04-03T04:14:07;99222.41;;;4.05
61390;BMP280;47260;48.274;19.814;2023-04-03T04:15:42;99221.22;;;4.06
61390;BMP280;47260;48.274;19.814;2023-04-03T04:17:13;99229.19;;;4.06
61390;BMP280;47260;48.274;19.814;2023-04-03T04:18:44;99222.13;;;4.03
61390;BMP280;47260;48.274;19.814;2023-04-03T04:20:17;99224.78;;;4.03
61390;BMP280;47260;48.274;19.814;2023-04-03T04:21:50;99230.09;;;4.03
61390;BMP280;47260;48.274;19.814;2023-04-03T04:23:22;99220.81;;;4.07
61390;BMP280;47260;48.274;19.814;2023-04-03T04:24:55;99225.94;;;4.11
61390;BMP280;47260;48.274;19.814;2023-04-03T04:26:26;99233.22;;;4.10
61390;BMP280;47260;48.274;19.814;2023-04-03T04:27:58;99231.72;;;4.09
61390;BMP280;47260;48.274;19.814;2023-04-03T04:29:30;99228.78;;;4.07
61390;BMP280;47260;48.274;19.814;2023-04-03T04:31:06;99237.16;;;4.15
61390;BMP280;47260;48.274;19.814;2023-04-03T04:32:37;99235.13;;;4.10
61390;BMP280;47260;48.274;19.814;2023-04-03T04:34:09;99240.56;;;4.15
61390;BMP280;47260;48.274;19.814;2023-04-03T04:35:43;99245.13;;;4.24
61390;BMP280;47260;48.274;19.814;2023-04-03T04:37:16;99252.50;;;4.29
61390;BMP280;47260;48.274;19.814;2023-04-03T04:38:48;99249.84;;;4.29
61390;BMP280;47260;48.274;19.814;2023-04-03T04:40:24;99255.03;;;4.33
61390;BMP280;47260;48.274;19.814;2023-04-03T04:41:55;99261.22;;;4.30
61390;BMP280;47260;48.274;19.814;2023-04-03T04:43:29;99261.81;;;4.34
61390;BMP280;47260;48.274;19.814;2023-04-03T04:45:01;99258.22;;;4.46
61390;BMP280;47260;48.274;19.814;2023-04-03T04:46:33;99272.50;;;4.66
61390;BMP280;47260;48.274;19.814;2023-04-03T04:48:05;99265.88;;;5.04
61390;BMP280;47260;48.274;19.814;2023-04-03T04:49:37;99265.44;;;5.38
61390;BMP280;47260;48.274;19.814;2023-04-03T04:51:09;99272.88;;;5.72
61390;BMP280;47260;48.274;19.814;2023-04-03T04:52:43;99284.16;;;6.05
61390;BMP280;47260;48.274;19.814;2023-04-03T04:54:15;99283.72;;;6.36
61390;BMP280;47260;48.274;19.814;2023-04-03T04:55:47;99280.06;;;6.63
61390;BMP280;47260;48.274;19.814;2023-04-03T04:57:20;99292.09;;;6.87
61390;BMP280;47260;48.274;19.814;2023-04-03T04:58:51;99296.06;;;7.12
61390;BMP280;47260;48.274;19.814;2023-04-03T05:00:25;99288.94;;;7.23
61390;BMP280;47260;48.274;19.814;2023-04-03T05:01:56;99283.56;;;7.58
61390;BMP280;47260;48.274;19.814;2023-04-03T05:03:30;99296.19;;;7.83
61390;BMP280;47260;48.274;19.814;2023-04-03T05:05:02;99301.28;;;8.01
61390;BMP280;47260;48.274;19.814;2023-04-03T05:06:34;99295.19;;;8.27
61390;BMP280;47260;48.274;19.814;2023-04-03T05:08:10;99302.75;;;8.59
61390;BMP280;47260;48.274;19.814;2023-04-03T05:09:44;99307.81;;;8.83
61390;BMP280;47260;48.274;19.814;2023-04-03T05:11:16;99302.16;;;8.75
61390;BMP280;47260;48.274;19.814;2023-04-03T05:12:49;99304.69;;;8.90
61390;BMP280;47260;48.274;19.814;2023-04-03T05:14:20;99308.53;;;9.20
61390;BMP280;47260;48.274;19.814;2023-04-03T05:15:51;99312.91;;;9.23
61390;BMP280;47260;48.274;19.814;2023-04-03T05:17:23;99309.00;;;9.24
61390;BMP280;47260;48.274;19.814;2023-04-03T05:18:58;99318.56;;;9.36
61390;BMP280;47260;48.274;19.814;2023-04-03T05:20:30;99317.44;;;9.59
61390;BMP280;47260;48.274;19.814;2023-04-03T05:22:02;99321.16;;;9.78
61390;BMP280;47260;48.274;19.814;2023-04-03T05:23:36;99322.06;;;9.48
61390;BMP280;47260;48.274;19.814;2023-04-03T05:25:08;99322.19;;;10.03
61390;BMP280;47260;48.274;19.814;2023-04-03T05:26:41;99321.50;;;10.47
61390;BMP280;47260;48.274;19.814;2023-04-03T05:28:13;99319.28;;;10.62
61390;BMP280;47260;48.274;19.814;2023-04-03T05:29:46;99323.44;;;10.91
61390;BMP280;47260;48.274;19.814;2023-04-03T05:31:23;99323.56;;;11.15
61390;BMP280;47260;48.274;19.814;2023-04-03T05:32:55;99321.78;;;11.39
61390;BMP280;47260;48.274;19.814;2023-04-03T05:34:37;99328.38;;;11.38
61390;BMP280;47260;48.274;19.814;2023-04-03T05:36:09;99324.78;;;11.76
61390;BMP280;47260;48.274;19.814;2023-04-03T05:37:46;99326.88;;;12.24
61390;BMP280;47260;48.274;19.814;2023-04-03T05:39:21;99325.66;;;12.55
61390;BMP280;47260;48.274;19.814;2023-04-03T05:40:53;99324.06;;;12.70
61390;BMP280;47260;48.274;19.814;2023-04-03T05:42:25;99318.72;;;12.65
61390;BMP280;47260;48.274;19.814;2023-04-03T05:43:57;99321.56;;;12.72
61390;BMP280;47260;48.274;19.814;2023-04-03T05:45:30;99325.38;;;13.07
61390;BMP280;47260;48.274;19.814;2023-04-03T05:47:03;99315.31;;;12.35
61390;BMP280;47260;48.274;19.814;2023-04-03T05:48:35;99330.13;;;12.76
61390;BMP280;47260;48.274;19.814;2023-04-03T05:50:08;99329.91;;;12.93
61390;BMP280;47260;48.274;19.814;2023-04-03T05:51:40;99316.38;;;12.99
61390;BMP280;47260;48.274;19.814;2023-04-03T05:53:28;99326.34;;;12.85
61390;BMP280;47260;48.274;19.814;2023-04-03T05:55:06;99323.47;;;13.02
61390;BMP280;47260;48.274;19.814;2023-04-03T05:56:39;99320.09;;;12.96
61390;BMP280;47260;48.274;19.814;2023-04-03T05:58:11;99329.47;;;13.32
61390;BMP280;47260;48.274;19.814;2023-04-03T05:59:44;99335.28;;;12.45
61390;BMP280;47260;48.274;19.814;2023-04-03T06:01:17;99331.41;;;12.70
61390;BMP280;47260;48.274;19.814;2023-04-03T06:02:49;99332.81;;;12.23
61390;BMP280;47260;48.274;19.814;2023-04-03T06:04:25;99336.06;;;12.40
61390;BMP280;47260;48.274;19.814;2023-04-03T06:05:58;99339.94;;;12.74
61390;BMP280;47260;48.274;19.814;2023-04-03T06:07:29;99342.78;;;12.57
61390;BMP280;47260;48.274;19.814;2023-04-03T06:09:01;99335.97;;;12.99
61390;BMP280;47260;48.274;19.814;2023-04-03T06:10:34;99339.09;;;13.64
61390;BMP280;47260;48.274;19.814;2023-04-03T06:12:06;99345.44;;;14.17
61390;BMP280;47260;48.274;19.814;2023-04-03T06:13:38;99345.09;;;14.39
61390;BMP280;47260;48.274;19.814;2023-04-03T06:15:10;99341.13;;;14.40
61390;BMP280;47260;48.274;19.814;2023-04-03T06:16:44;99342.66;;;14.23
61390;BMP280;47260;48.274;19.814;2023-04-03T06:18:16;99342.84;;;13.93
61390;BMP280;47260;48.274;19.814;2023-04-03T06:19:48;99342.53;;;13.46
61390;BMP280;47260;48.274;19.814;2023-04-03T06:21:20;99342.03;;;13.98
61390;BMP280;47260;48.274;19.814;2023-04-03T06:22:52;99340.38;;;14.27
61390;BMP280;47260;48.274;19.814;2023-04-03T06:24:23;99348.28;;;14.25
61390;BMP280;47260;48.274;19.814;2023-04-03T06:25:57;99348.94;;;14.12
61390;BMP280;47260;48.274;19.814;2023-04-03T06:27:28;99347.09;;;13.88
61390;BMP280;47260;48.274;19.814;2023-04-03T06:29:00;99351.06;;;13.50
61390;BMP280;47260;48.274;19.814;2023-04-03T06:30:32;99344.84;;;13.37
61390;BMP280;47260;48.274;19.814;2023-04-03T06:32:04;99349.09;;;13.32
61390;BMP280;47260;48.274;19.814;2023-04-03T06:33:35;99351.25;;;12.91
61390;BMP280;47260;48.274;19.814;2023-04-03T06:35:07;99343.38;;;12.93
61390;BMP280;47260;48.274;19.814;2023-04-03T06:36:39;99354.56;;;13.27
61390;BMP280;47260;48.274;19.814;2023-04-03T06:38:11;99351.44;;;13.41
61390;BMP280;47260;48.274;19.814;2023-04-03T06:39:43;99356.97;;;13.67
61390;BMP280;47260;48.274;19.814;2023-04-03T06:41:16;99358.28;;;13.42
61390;BMP280;47260;48.274;19.814;2023-04-03T06:42:48;99355.00;;;13.49
61390;BMP280;47260;48.274;19.814;2023-04-03T06:44:22;99355.44;;;13.72
61390;BMP280;47260;48.274;19.814;2023-04-03T06:45:54;99353.13;;;13.63
61390;BMP280;47260;48.274;19.814;2023-04-03T06:47:25;99359.50;;;13.78
61390;BMP280;47260;48.274;19.814;2023-04-03T06:48:57;99358.88;;;14.04
61390;BMP280;47260;48.274;19.814;2023-04-03T06:50:29;99359.72;;;13.80
61390;BMP280;47260;48.274;19.814;2023-04-03T06:52:00;99360.38;;;14.76
61390;BMP280;47260;48.274;19.814;2023-04-03T06:53:32;99354.50;;;15.37
61390;BMP280;47260;48.274;19.814;2023-04-03T06:55:04;99360.41;;;15.82
61390;BMP280;47260;48.274;19.814;2023-04-03T06:56:37;99361.34;;;15.51
61390;BMP280;47260;48.274;19.814;2023-04-03T06:58:09;99363.31;;;15.84
61390;BMP280;47260;48.274;19.814;2023-04-03T06:59:41;99368.06;;;16.12
61390;BMP280;47260;48.274;19.814;2023-04-03T07:01:15;99370.31;;;16.00
61390;BMP280;47260;48.274;19.814;2023-04-03T07:02:50;99372.91;;;16.06
61390;BMP280;47260;48.274;19.814;2023-04-03T07:04:21;99379.88;;;16.01
61390;BMP280;47260;48.274;19.814;2023-04-03T07:05:53;99374.31;;;15.66
61390;BMP280;47260;48.274;19.814;2023-04-03T07:07:25;99376.00;;;15.56
61390;BMP280;47260;48.274;19.814;2023-04-03T07:08:57;99382.75;;;15.96
61390;BMP280;47260;48.274;19.814;2023-04-03T07:10:29;99377.44;;;15.70
61390;BMP280;47260;48.274;19.814;2023-04-03T07:12:02;99377.94;;;15.22
61390;BMP280;47260;48.274;19.814;2023-04-03T07:13:34;99384.28;;;15.37
61390;BMP280;47260;48.274;19.814;2023-04-03T07:15:07;99384.88;;;15.43
61390;BMP280;47260;48.274;19.814;2023-04-03T07:16:39;99384.38;;;15.99
61390;BMP280;47260;48.274;19.814;2023-04-03T07:18:11;99389.72;;;15.91
61390;BMP280;47260;48.274;19.814;2023-04-03T07:19:43;99384.41;;;15.65
61390;BMP280;47260;48.274;19.814;2023-04-03T07:21:14;99385.38;;;16.09
61390;BMP280;47260;48.274;19.814;2023-04-03T07:22:46;99396.00;;;15.86
61390;BMP280;47260;48.274;19.814;2023-04-03T07:24:18;99389.03;;;16.11
61390;BMP280;47260;48.274;19.814;2023-04-03T07:25:51;99390.66;;;15.60
61390;BMP280;47260;48.274;19.814;2023-04-03T07:27:24;99383.00;;;15.85
61390;BMP280;47260;48.274;19.814;2023-04-03T07:28:56;99385.25;;;15.94
61390;BMP280;47260;48.274;19.814;2023-04-03T07:30:27;99389.88;;;16.55
61390;BMP280;47260;48.274;19.814;2023-04-03T07:31:59;99398.47;;;16.67
61390;BMP280;47260;48.274;19.814;2023-04-03T07:33:31;99395.03;;;15.63
61390;BMP280;47260;48.274;19.814;2023-04-03T07:35:03;99392.41;;;15.24
61390;BMP280;47260;48.274;19.814;2023-04-03T07:36:35;99396.44;;;15.44
61390;BMP280;47260;48.274;19.814;2023-04-03T07:38:08;99388.28;;;16.32
61390;BMP280;47260;48.274;19.814;2023-04-03T07:39:39;99395.88;;;16.82
61390;BMP280;47260;48.274;19.814;2023-04-03T07:41:14;99394.97;;;15.89
61390;BMP280;47260;48.274;19.814;2023-04-03T07:42:49;99391.38;;;14.75
61390;BMP280;47260;48.274;19.814;2023-04-03T07:44:21;99387.94;;;15.73
61390;BMP280;47260;48.274;19.814;2023-04-03T07:45:53;99396.53;;;16.05
61390;BMP280;47260;48.274;19.814;2023-04-03T07:47:24;99389.75;;;16.12
61390;BMP280;47260;48.274;19.814;2023-04-03T07:48:56;99382.53;;;15.94
61390;BMP280;47260;48.274;19.814;2023-04-03T07:50:28;99387.94;;;15.73
61390;BMP280;47260;48.274;19.814;2023-04-03T07:52:00;99387.50;;;15.36
61390;BMP280;47260;48.274;19.814;2023-04-03T07:53:32;99395.19;;;15.78
61390;BMP280;47260;48.274;19.814;2023-04-03T07:55:05;99392.38;;;15.84
61390;BMP280;47260;48.274;19.814;2023-04-03T07:56:37;99393.56;;;15.96
61390;BMP280;47260;48.274;19.814;2023-04-03T07:58:10;99402.56;;;15.57
61390;BMP280;47260;48.274;19.814;2023-04-03T07:59:43;99394.47;;;14.66
61390;BMP280;47260;48.274;19.814;2023-04-03T08:01:15;99391.16;;;14.60
61390;BMP280;47260;48.274;19.814;2023-04-03T08:02:46;99391.78;;;14.66
61390;BMP280;47260;48.274;19.814;2023-04-03T08:04:20;99394.56;;;14.47
61390;BMP280;47260;48.274;19.814;2023-04-03T08:05:52;99397.16;;;14.53
61390;BMP280;47260;48.274;19.814;2023-04-03T08:07:24;99392.66;;;13.60
61390;BMP280;47260;48.274;19.814;2023-04-03T08:08:56;99379.94;;;13.74
61390;BMP280;47260;48.274;19.814;2023-04-03T08:10:29;99389.06;;;13.89
61390;BMP280;47260;48.274;19.814;2023-04-03T08:12:01;99398.38;;;14.07
61390;BMP280;47260;48.274;19.814;2023-04-03T08:13:34;99401.66;;;13.81
61390;BMP280;47260;48.274;19.814;2023-04-03T08:15:07;99394.19;;;14.25
61390;BMP280;47260;48.274;19.814;2023-04-03T08:16:39;99390.19;;;14.44
61390;BMP280;47260;48.274;19.814;2023-04-03T08:18:11;99391.75;;;13.52
61390;BMP280;47260;48.274;19.814;2023-04-03T08:19:42;99388.63;;;13.48
61390;BMP280;47260;48.274;19.814;2023-04-03T08:21:14;99401.28;;;13.35
61390;BMP280;47260;48.274;19.814;2023-04-03T08:22:46;99397.41;;;13.30
61390;BMP280;47260;48.274;19.814;2023-04-03T08:24:18;99396.94;;;13.26
61390;BMP280;47260;48.274;19.814;2023-04-03T08:25:49;99395.16;;;13.34
61390;BMP280;47260;48.274;19.814;2023-04-03T08:27:21;99393.94;;;12.87
61390;BMP280;47260;48.274;19.814;2023-04-03T08:28:54;99390.72;;;13.55
61390;BMP280;47260;48.274;19.814;2023-04-03T08:30:26;99396.03;;;13.42
61390;BMP280;47260;48.274;19.814;2023-04-03T08:31:58;99388.66;;;12.76
61390;BMP280;47260;48.274;19.814;2023-04-03T08:33:29;99396.28;;;12.37
61390;BMP280;47260;48.274;19.814;2023-04-03T08:35:01;99393.09;;;12.38
61390;BMP280;47260;48.274;19.814;2023-04-03T08:36:33;99389.22;;;12.34
61390;BMP280;47260;48.274;19.814;2023-04-03T08:38:05;99393.22;;;12.57
61390;BMP280;47260;48.274;19.814;2023-04-03T08:39:37;99394.22;;;12.54
61390;BMP280;47260;48.274;19.814;2023-04-03T08:41:14;99403.16;;;12.38
61390;BMP280;47260;48.274;19.814;2023-04-03T08:42:54;99398.34;;;12.60
61390;BMP280;47260;48.274;19.814;2023-04-03T08:44:38;99403.19;;;12.67
61390;BMP280;47260;48.274;19.814;2023-04-03T08:46:13;99384.50;;;12.99
61390;BMP280;47260;48.274;19.814;2023-04-03T08:47:48;99398.69;;;13.48
61390;BMP280;47260;48.274;19.814;2023-04-03T08:49:26;99397.31;;;13.97
61390;BMP280;47260;48.274;19.814;2023-04-03T08:51:02;99393.97;;;14.23
61390;BMP280;47260;48.274;19.814;2023-04-03T08:52:38;99392.97;;;14.52
61390;BMP280;47260;48.274;19.814;2023-04-03T08:54:20;99386.91;;;14.20